createdAt,value
2023-04-11T00:00:37.848Z,77.70
2023-04-11T00:03:07.246Z,76.50
2023-04-11T00:05:34.162Z,76.30
2023-04-11T00:08:00.935Z,76.10
2023-04-11T00:10:27.757Z,77.80
2023-04-11T00:12:56.701Z,77.30
2023-04-11T00:15:26.674Z,78.20
2023-04-11T00:17:53.970Z,77.40
2023-04-11T00:20:20.833Z,76.60
2023-04-11T00:22:47.626Z,76.40
2023-04-11T00:25:15.280Z,76.60
2023-04-11T00:27:41.977Z,76.50
2023-04-11T00:30:09.151Z,76.90
2023-04-11T00:32:35.912Z,76.10
2023-04-11T00:35:02.947Z,76.80
2023-04-11T00:37:29.713Z,76.10
2023-04-11T00:39:56.519Z,78.00
2023-04-11T00:42:23.421Z,77.70
2023-04-11T00:44:50.422Z,77.10
2023-04-11T00:47:17.233Z,78.30
2023-04-11T00:49:44.034Z,78.30
2023-04-11T00:52:12.802Z,78.40
2023-04-11T00:54:40.322Z,78.20
2023-04-11T00:57:08.174Z,80.30
2023-04-11T00:59:35.693Z,79.40
2023-04-11T01:02:02.513Z,79.40
2023-04-11T01:04:30.832Z,77.60
2023-04-11T01:07:06.155Z,78.60
2023-04-11T01:09:35.440Z,79.40
2023-04-11T01:12:03.915Z,77.90
2023-04-11T01:14:30.895Z,77.10
2023-04-11T01:16:58.320Z,77.90
2023-04-11T01:19:27.338Z,76.90
2023-04-11T01:21:56.047Z,78.20
2023-04-11T01:24:22.876Z,78.30
2023-04-11T01:26:50.104Z,78.10
2023-04-11T01:29:16.895Z,78.70
2023-04-11T01:31:43.986Z,80.30
2023-04-11T01:34:13.837Z,81.70
2023-04-11T01:36:42.419Z,84.80
2023-04-11T01:39:09.490Z,86.30
2023-04-11T01:41:37.323Z,86.80
2023-04-11T01:44:04.918Z,90.20
2023-04-11T01:46:32.429Z,90.90
2023-04-11T01:49:01.541Z,92.70
2023-04-11T01:51:28.539Z,94.10
2023-04-11T01:53:55.729Z,95.50
2023-04-11T01:56:22.595Z,96.80
2023-04-11T01:58:49.496Z,98.10
2023-04-11T02:01:19.215Z,99.90
2023-04-11T02:03:46.585Z,99.90
2023-04-11T02:06:14.790Z,99.90
2023-04-11T02:08:41.546Z,99.90
2023-04-11T02:11:08.379Z,99.90
2023-04-11T02:13:36.055Z,99.90
2023-04-11T02:16:15.146Z,99.90
2023-04-11T02:18:44.098Z,99.90
2023-04-11T02:21:11.203Z,99.90
2023-04-11T02:23:38.272Z,99.90
2023-04-11T02:26:05.300Z,99.90
2023-04-11T02:28:31.986Z,99.90
2023-04-11T02:30:58.818Z,99.90
2023-04-11T02:33:26.191Z,99.90
2023-04-11T02:35:53.084Z,99.90
2023-04-11T02:38:20.431Z,99.90
2023-04-11T02:40:47.271Z,99.90
2023-04-11T02:43:14.108Z,99.90
2023-04-11T02:45:41.300Z,99.90
2023-04-11T02:48:08.441Z,99.90
2023-04-11T02:50:35.336Z,99.90
2023-04-11T02:53:02.028Z,99.90
2023-04-11T02:55:28.730Z,99.90
2023-04-11T02:57:55.498Z,99.90
2023-04-11T03:00:22.509Z,99.90
2023-04-11T03:02:49.528Z,99.90
2023-04-11T03:05:16.653Z,99.90
2023-04-11T03:07:44.382Z,99.90
2023-04-11T03:10:11.166Z,99.90
2023-04-11T03:12:38.185Z,99.90
2023-04-11T03:15:05.370Z,99.90
2023-04-11T03:17:34.007Z,99.90
2023-04-11T03:20:00.941Z,99.90
2023-04-11T03:22:27.792Z,99.90
2023-04-11T03:24:54.486Z,99.90
2023-04-11T03:27:21.162Z,99.90
2023-04-11T03:29:48.226Z,99.90
2023-04-11T03:32:14.963Z,99.90
2023-04-11T03:34:41.672Z,99.90
2023-04-11T03:37:08.389Z,99.90
2023-04-11T03:39:35.467Z,99.90
2023-04-11T03:42:02.702Z,99.90
2023-04-11T03:44:29.484Z,99.90
2023-04-11T03:46:56.250Z,99.90
2023-04-11T03:49:22.982Z,99.90
2023-04-11T03:51:49.677Z,99.90
2023-04-11T03:54:16.478Z,99.90
2023-04-11T03:56:43.249Z,99.90
2023-04-11T03:59:09.941Z,99.90
2023-04-11T04:01:38.020Z,99.90
2023-04-11T04:04:05.772Z,99.90
2023-04-11T04:06:32.611Z,99.90
2023-04-11T04:09:00.379Z,99.90
2023-04-11T04:11:27.247Z,99.90
2023-04-11T04:13:54.366Z,99.90
2023-04-11T04:16:21.467Z,99.90
2023-04-11T04:18:48.425Z,99.90
2023-04-11T04:21:15.759Z,99.90
2023-04-11T04:23:47.408Z,99.90
2023-04-11T04:26:17.989Z,99.90
2023-04-11T04:28:46.205Z,99.90
2023-04-11T04:31:15.186Z,99.90
2023-04-11T04:33:42.874Z,99.90
2023-04-11T04:36:12.423Z,99.90
2023-04-11T04:38:42.119Z,99.90
2023-04-11T04:41:15.536Z,99.90
2023-04-11T04:43:42.596Z,99.90
2023-04-11T04:46:09.925Z,99.90
2023-04-11T04:48:36.854Z,99.90
2023-04-11T04:51:05.051Z,99.90
2023-04-11T04:53:34.695Z,99.90
2023-04-11T04:56:02.374Z,99.90
2023-04-11T04:58:29.253Z,99.90
2023-04-11T05:00:56.420Z,99.90
2023-04-11T05:03:23.476Z,99.90
2023-04-11T05:05:50.485Z,99.90
2023-04-11T05:08:19.386Z,99.90
2023-04-11T05:10:46.270Z,99.90
2023-04-11T05:13:12.982Z,99.90
2023-04-11T05:15:39.772Z,99.90
2023-04-11T05:18:06.553Z,99.90
2023-04-11T05:20:33.348Z,99.90
2023-04-11T05:23:00.056Z,99.90
2023-04-11T05:25:27.119Z,99.90
2023-04-11T05:27:53.956Z,99.90
2023-04-11T05:30:20.798Z,99.90
2023-04-11T05:32:47.739Z,99.90
2023-04-11T05:35:14.520Z,99.90
2023-04-11T05:37:43.020Z,99.90
2023-04-11T05:40:10.086Z,99.90
2023-04-11T05:42:36.920Z,99.90
2023-04-11T05:45:03.800Z,99.90
2023-04-11T05:47:31.178Z,99.90
2023-04-11T05:49:57.989Z,99.90
2023-04-11T05:52:24.741Z,99.90
2023-04-11T05:54:51.396Z,99.90
2023-04-11T05:57:18.252Z,99.90
2023-04-11T05:59:49.670Z,99.90
2023-04-11T06:02:16.818Z,99.90
2023-04-11T06:04:43.892Z,99.90
2023-04-11T06:07:10.930Z,99.90
2023-04-11T06:09:39.169Z,99.90
2023-04-11T06:12:06.374Z,99.90
2023-04-11T06:14:33.175Z,99.90
2023-04-11T06:17:00.034Z,99.90
2023-04-11T06:19:26.751Z,99.90
2023-04-11T06:21:53.461Z,99.90
2023-04-11T06:24:35.619Z,99.90
2023-04-11T06:27:02.360Z,99.90
2023-04-11T06:29:29.192Z,99.90
2023-04-11T06:31:55.942Z,99.90
2023-04-11T06:34:22.655Z,99.90
2023-04-11T06:36:49.955Z,99.90
2023-04-11T06:39:17.096Z,99.90
2023-04-11T06:41:43.836Z,99.90
2023-04-11T06:44:10.778Z,99.90
2023-04-11T06:46:37.542Z,99.90
2023-04-11T06:49:07.184Z,99.90
2023-04-11T06:51:34.847Z,99.90
2023-04-11T06:54:02.049Z,99.90
2023-04-11T06:56:29.573Z,99.90
2023-04-11T06:58:56.255Z,99.90
2023-04-11T07:01:25.581Z,99.90
2023-04-11T07:03:53.741Z,99.90
2023-04-11T07:06:20.537Z,99.90
2023-04-11T07:08:47.311Z,99.90
2023-04-11T07:11:14.124Z,99.90
2023-04-11T07:13:40.888Z,99.90
2023-04-11T07:16:08.204Z,99.90
2023-04-11T07:18:34.901Z,99.90
2023-04-11T07:21:01.668Z,99.90
2023-04-11T07:23:28.565Z,99.90
2023-04-11T07:25:55.623Z,99.90
2023-04-11T07:28:23.607Z,99.90
2023-04-11T07:30:50.407Z,99.90
2023-04-11T07:33:17.119Z,99.90
2023-04-11T07:35:44.101Z,99.90
2023-04-11T07:38:10.850Z,99.90
2023-04-11T07:40:37.625Z,99.90
2023-04-11T07:43:04.409Z,99.90
2023-04-11T07:45:31.194Z,99.90
2023-04-11T07:47:58.055Z,99.90
2023-04-11T07:50:24.791Z,99.90
2023-04-11T07:52:51.527Z,99.90
2023-04-11T07:55:18.315Z,99.90
2023-04-11T07:57:45.679Z,99.90
2023-04-11T08:00:20.456Z,99.90
2023-04-11T08:02:47.408Z,99.90
2023-04-11T08:05:14.363Z,99.90
2023-04-11T08:07:41.958Z,99.90
2023-04-11T08:10:09.259Z,99.90
2023-04-11T08:12:36.003Z,99.90
2023-04-11T08:15:02.995Z,99.90
2023-04-11T08:17:29.864Z,99.90
2023-04-11T08:19:57.790Z,99.90
2023-04-11T08:22:24.595Z,99.90
2023-04-11T08:24:51.959Z,99.90
2023-04-11T08:27:18.674Z,99.90
2023-04-11T08:29:45.920Z,99.90
2023-04-11T08:32:12.636Z,99.90
2023-04-11T08:34:39.331Z,99.90
2023-04-11T08:37:06.026Z,99.90
2023-04-11T08:39:32.723Z,99.90
2023-04-11T08:42:00.146Z,99.60
2023-04-11T08:44:26.973Z,98.50
2023-04-11T08:46:53.724Z,99.20
2023-04-11T08:49:20.445Z,98.40
2023-04-11T08:51:48.333Z,98.20
2023-04-11T08:54:15.545Z,99.20
2023-04-11T08:56:43.240Z,99.00
2023-04-11T08:59:10.000Z,99.30
2023-04-11T09:01:37.580Z,97.30
2023-04-11T09:04:05.596Z,97.70
2023-04-11T09:06:33.762Z,96.40
2023-04-11T09:09:05.076Z,95.90
2023-04-11T09:11:50.789Z,95.10
2023-04-11T09:14:17.558Z,94.30
2023-04-11T09:16:55.782Z,94.40
2023-04-11T09:19:24.983Z,94.00
2023-04-11T09:21:52.866Z,94.20
2023-04-11T09:24:19.818Z,92.00
2023-04-11T09:26:46.627Z,90.70
2023-04-11T09:29:37.570Z,90.40
2023-04-11T09:32:04.580Z,90.50
2023-04-11T09:34:31.280Z,90.90
2023-04-11T09:36:59.400Z,92.10
2023-04-11T09:39:28.491Z,94.80
2023-04-11T09:41:56.714Z,97.40
2023-04-11T09:44:38.847Z,98.90
2023-04-11T09:47:05.746Z,99.90
2023-04-11T09:49:34.986Z,99.90
2023-04-11T09:52:02.811Z,99.90
2023-04-11T09:54:31.651Z,99.90
2023-04-11T09:56:59.072Z,99.90
2023-04-11T09:59:27.344Z,99.90
2023-04-11T10:01:54.678Z,97.50
2023-04-11T10:04:22.795Z,93.50
2023-04-11T10:07:03.735Z,90.00
2023-04-11T10:09:32.353Z,82.00
2023-04-11T10:11:59.421Z,79.20
2023-04-11T10:14:42.413Z,72.90
2023-04-11T10:17:15.696Z,67.80
2023-04-11T10:19:44.543Z,66.50
2023-04-11T10:22:31.906Z,63.30
2023-04-11T10:25:19.832Z,65.80
2023-04-11T10:27:49.459Z,61.10
2023-04-11T10:30:16.670Z,59.30
2023-04-11T10:33:14.865Z,53.20
2023-04-11T10:35:58.313Z,55.40
2023-04-11T10:38:43.238Z,54.40
2023-04-11T10:41:20.036Z,50.40
2023-04-11T10:43:47.487Z,52.00
2023-04-11T10:46:29.864Z,48.00
2023-04-11T10:48:59.013Z,43.00
2023-04-11T10:51:27.680Z,43.60
2023-04-11T10:53:55.742Z,43.40
2023-04-11T10:56:44.127Z,40.60
2023-04-11T10:59:31.019Z,39.80
2023-04-11T11:01:59.732Z,39.10
2023-04-11T11:04:35.429Z,40.50
2023-04-11T11:07:04.772Z,40.00
2023-04-11T11:09:31.838Z,39.20
2023-04-11T11:12:16.117Z,39.10
2023-04-11T11:14:44.923Z,39.00
2023-04-11T11:17:13.328Z,39.20
2023-04-11T11:19:48.616Z,39.40
2023-04-11T11:22:17.433Z,40.10
2023-04-11T11:24:44.302Z,37.60
2023-04-11T11:27:26.345Z,36.10
2023-04-11T11:29:53.660Z,36.30
2023-04-11T11:32:28.152Z,36.70
2023-04-11T11:34:55.515Z,38.30
2023-04-11T11:37:23.157Z,39.30
2023-04-11T11:39:50.695Z,39.00
2023-04-11T11:42:18.233Z,40.10
2023-04-11T11:44:44.975Z,42.10
2023-04-11T11:47:15.076Z,44.30
2023-04-11T11:49:45.996Z,43.80
2023-04-11T11:52:13.908Z,45.80
2023-04-11T11:54:45.556Z,48.30
2023-04-11T11:57:12.554Z,49.40
2023-04-11T11:59:39.308Z,46.90
2023-04-11T12:02:06.119Z,45.60
2023-04-11T12:04:33.353Z,41.20
2023-04-11T12:07:08.636Z,37.40
2023-04-11T12:09:36.170Z,39.20
2023-04-11T12:12:03.198Z,35.50
2023-04-11T12:14:29.907Z,38.70
2023-04-11T12:16:56.657Z,38.60
2023-04-11T12:19:23.753Z,39.00
2023-04-11T12:21:50.540Z,39.70
2023-04-11T12:24:17.285Z,38.90
2023-04-11T12:27:05.565Z,41.90
2023-04-11T12:29:32.642Z,43.70
2023-04-11T12:31:59.400Z,47.90
2023-04-11T12:34:26.145Z,48.80
2023-04-11T12:36:52.896Z,49.90
2023-04-11T12:39:19.575Z,51.00
2023-04-11T12:41:46.270Z,54.30
2023-04-11T12:44:13.018Z,53.50
2023-04-11T12:46:39.759Z,51.30
2023-04-11T12:49:06.661Z,48.10
2023-04-11T12:51:33.357Z,47.40
2023-04-11T12:54:00.066Z,47.70
2023-04-11T12:56:26.945Z,44.60
2023-04-11T12:58:53.777Z,44.00
2023-04-11T13:01:21.180Z,42.00
2023-04-11T13:03:48.007Z,43.50
2023-04-11T13:06:14.824Z,42.50
2023-04-11T13:08:42.101Z,40.00
2023-04-11T13:11:08.784Z,39.40
2023-04-11T13:13:35.497Z,41.90
2023-04-11T13:16:02.372Z,41.50
2023-04-11T13:18:29.241Z,40.80
2023-04-11T13:20:56.334Z,43.00
2023-04-11T13:23:23.072Z,41.40
2023-04-11T13:25:49.870Z,38.20
2023-04-11T13:28:16.592Z,38.30
2023-04-11T13:30:43.463Z,36.90
2023-04-11T13:33:10.290Z,37.80
2023-04-11T13:35:37.033Z,37.90
2023-04-11T13:38:04.772Z,41.90
2023-04-11T13:40:31.494Z,43.60
2023-04-11T13:42:58.225Z,44.10
2023-04-11T13:45:24.987Z,42.20
2023-04-11T13:47:51.786Z,42.10
2023-04-11T13:50:18.565Z,44.70
2023-04-11T13:52:45.253Z,46.10
2023-04-11T13:55:12.092Z,49.60
2023-04-11T13:57:38.776Z,51.80
2023-04-11T14:00:10.354Z,51.50
2023-04-11T14:02:39.441Z,55.80
2023-04-11T14:05:07.406Z,57.10
2023-04-11T14:07:34.130Z,61.20
2023-04-11T14:10:00.826Z,62.20
2023-04-11T14:12:27.577Z,65.70
2023-04-11T14:14:54.364Z,71.60
2023-04-11T14:17:21.385Z,72.90
2023-04-11T14:19:48.119Z,69.40
2023-04-11T14:22:15.026Z,76.00
2023-04-11T14:24:41.814Z,80.40
2023-04-11T14:27:08.664Z,91.10
2023-04-11T14:29:37.390Z,92.80
2023-04-11T14:32:04.539Z,95.90
2023-04-11T14:34:31.504Z,81.30
2023-04-11T14:36:58.196Z,77.50
2023-04-11T14:39:24.905Z,70.30
2023-04-11T14:41:51.587Z,66.00
2023-04-11T14:44:18.314Z,61.60
2023-04-11T14:46:45.000Z,55.80
2023-04-11T14:49:11.705Z,52.30
2023-04-11T14:51:38.722Z,49.50
2023-04-11T14:54:05.565Z,49.30
2023-04-11T14:56:32.359Z,46.00
2023-04-11T14:58:59.193Z,50.40
2023-04-11T15:01:26.532Z,54.40
2023-04-11T15:03:54.484Z,59.60
2023-04-11T15:06:21.520Z,59.90
2023-04-11T15:08:49.577Z,65.30
2023-04-11T15:11:17.182Z,66.70
2023-04-11T15:13:47.833Z,68.60
2023-04-11T15:16:14.685Z,64.10
2023-04-11T15:18:41.414Z,61.10
2023-04-11T15:21:08.423Z,53.30
2023-04-11T15:23:35.347Z,45.30
2023-04-11T15:26:03.393Z,43.40
2023-04-11T15:28:33.579Z,43.40
2023-04-11T15:31:00.827Z,44.30
2023-04-11T15:33:28.033Z,43.50
2023-04-11T15:35:55.790Z,43.00
2023-04-11T15:38:23.918Z,43.00
2023-04-11T15:40:52.408Z,42.20
2023-04-11T15:43:19.428Z,41.70
2023-04-11T15:45:46.865Z,38.30
2023-04-11T15:48:13.862Z,42.00
2023-04-11T15:50:41.893Z,39.90
2023-04-11T15:53:09.365Z,39.40
2023-04-11T15:55:40.740Z,40.50
2023-04-11T15:58:08.094Z,40.80
2023-04-11T16:00:36.891Z,38.80
2023-04-11T16:03:04.753Z,41.30
2023-04-11T16:05:32.592Z,46.10
2023-04-11T16:07:59.718Z,49.90
2023-04-11T16:10:26.668Z,50.50
2023-04-11T16:12:53.446Z,52.40
2023-04-11T16:15:20.241Z,55.30
2023-04-11T16:17:46.976Z,56.60
2023-04-11T16:20:18.423Z,56.50
2023-04-11T16:22:46.347Z,55.90
2023-04-11T16:25:15.813Z,54.60
2023-04-11T16:27:42.649Z,57.70
2023-04-11T16:30:09.657Z,58.40
2023-04-11T16:32:36.472Z,57.30
2023-04-11T16:35:03.273Z,57.90
2023-04-11T16:37:30.018Z,56.90
2023-04-11T16:39:57.877Z,59.30
2023-04-11T16:42:24.720Z,59.00
2023-04-11T16:44:51.475Z,59.50
2023-04-11T16:47:18.748Z,57.60
2023-04-11T16:49:46.984Z,57.70
2023-04-11T16:52:13.910Z,61.10
2023-04-11T16:54:40.637Z,58.90
2023-04-11T16:57:07.469Z,59.60
2023-04-11T16:59:34.424Z,60.60
2023-04-11T17:02:01.151Z,62.00
2023-04-11T17:04:28.051Z,63.60
2023-04-11T17:06:55.904Z,63.40
2023-04-11T17:09:22.837Z,62.80
2023-04-11T17:11:49.576Z,64.30
2023-04-11T17:14:16.388Z,63.80
2023-04-11T17:16:43.590Z,64.30
2023-04-11T17:19:10.478Z,64.60
2023-04-11T17:21:37.285Z,65.60
2023-04-11T17:24:04.058Z,66.40
2023-04-11T17:26:31.217Z,67.40
2023-04-11T17:28:57.899Z,68.20
2023-04-11T17:31:27.573Z,68.30
2023-04-11T17:33:55.090Z,70.00
2023-04-11T17:36:22.437Z,70.30
2023-04-11T17:38:49.243Z,69.70
2023-04-11T17:41:16.258Z,70.70
2023-04-11T17:43:43.742Z,70.80
2023-04-11T17:46:10.514Z,71.50
2023-04-11T17:48:37.756Z,72.90
2023-04-11T17:51:06.837Z,72.80
2023-04-11T17:53:33.991Z,70.90
2023-04-11T17:56:05.926Z,72.90
2023-04-11T17:58:33.474Z,73.10
2023-04-11T18:01:00.295Z,72.00
2023-04-11T18:03:27.353Z,73.80
2023-04-11T18:05:54.847Z,74.00
2023-04-11T18:08:29.900Z,74.00
2023-04-11T18:11:04.310Z,75.30
2023-04-11T18:13:31.590Z,72.90
2023-04-11T18:15:58.513Z,75.70
2023-04-11T18:18:25.529Z,76.80
2023-04-11T18:20:52.252Z,77.40
2023-04-11T18:23:18.961Z,77.90
2023-04-11T18:25:46.059Z,77.00
2023-04-11T18:28:12.808Z,79.10
2023-04-11T18:30:39.608Z,77.70
2023-04-11T18:33:06.323Z,79.80
2023-04-11T18:35:33.151Z,80.20
2023-04-11T18:38:00.261Z,79.60
2023-04-11T18:40:27.806Z,78.60
2023-04-11T18:42:56.437Z,78.80
2023-04-11T18:45:24.194Z,79.00
2023-04-11T18:47:51.292Z,81.20
2023-04-11T18:50:18.934Z,81.20
2023-04-11T18:52:46.472Z,79.40
2023-04-11T18:55:16.242Z,81.20
2023-04-11T18:57:47.030Z,79.70
2023-04-11T19:00:18.444Z,81.70
2023-04-11T19:02:46.615Z,79.80
2023-04-11T19:05:14.225Z,81.30
2023-04-11T19:07:42.148Z,83.30
2023-04-11T19:10:10.223Z,82.90
2023-04-11T19:12:37.214Z,84.40
2023-04-11T19:15:06.812Z,83.30
2023-04-11T19:17:38.601Z,82.50
2023-04-11T19:20:07.517Z,86.20
2023-04-11T19:22:35.964Z,87.30
2023-04-11T19:25:02.716Z,88.80
2023-04-11T19:27:29.689Z,88.90
2023-04-11T19:29:57.067Z,90.20
2023-04-11T19:32:23.923Z,91.00
2023-04-11T19:34:50.743Z,91.10
2023-04-11T19:37:19.258Z,91.10
2023-04-11T19:39:45.998Z,91.90
2023-04-11T19:42:12.844Z,92.20
2023-04-11T19:44:39.889Z,92.80
2023-04-11T19:47:06.680Z,92.50
2023-04-11T19:49:33.393Z,93.40
2023-04-11T19:52:00.185Z,93.00
2023-04-11T19:54:26.865Z,94.40
2023-04-11T19:56:53.745Z,95.00
2023-04-11T19:59:20.610Z,95.50
2023-04-11T20:01:47.556Z,95.80
2023-04-11T20:04:15.795Z,96.70
2023-04-11T20:06:43.946Z,95.90
2023-04-11T20:09:12.397Z,97.70
2023-04-11T20:11:39.515Z,98.80
2023-04-11T20:14:07.344Z,99.00
2023-04-11T20:16:34.119Z,99.00
2023-04-11T20:19:01.739Z,99.90
2023-04-11T20:21:28.600Z,99.90
2023-04-11T20:23:55.575Z,99.90
2023-04-11T20:26:22.813Z,99.90
2023-04-11T20:28:50.377Z,99.90
2023-04-11T20:31:17.214Z,99.90
2023-04-11T20:33:45.322Z,99.90
2023-04-11T20:36:12.742Z,99.90
2023-04-11T20:38:39.508Z,99.90
2023-04-11T20:41:06.386Z,99.90
2023-04-11T20:43:33.167Z,99.90
2023-04-11T20:45:59.907Z,99.90
2023-04-11T20:48:30.611Z,99.90
2023-04-11T20:50:57.272Z,99.90
2023-04-11T20:53:25.053Z,99.90
2023-04-11T20:55:52.944Z,99.90
2023-04-11T20:58:21.111Z,99.90
2023-04-11T21:00:47.995Z,99.90
2023-04-11T21:03:14.884Z,99.90
2023-04-11T21:05:44.283Z,99.90
2023-04-11T21:08:11.895Z,99.90
2023-04-11T21:10:38.718Z,99.90
2023-04-11T21:13:05.532Z,99.90
2023-04-11T21:15:34.325Z,99.90
2023-04-11T21:18:01.072Z,99.90
2023-04-11T21:20:27.796Z,99.90
2023-04-11T21:22:54.718Z,99.90
2023-04-11T21:25:22.086Z,99.90
2023-04-11T21:27:49.822Z,99.90
2023-04-11T21:30:16.351Z,99.90
2023-04-11T21:32:43.213Z,99.90
2023-04-11T21:35:11.099Z,99.90
2023-04-11T21:37:37.841Z,99.90
2023-04-11T21:40:04.931Z,99.90
2023-04-11T21:42:31.638Z,99.90
2023-04-11T21:44:58.478Z,99.90
2023-04-11T21:47:25.446Z,99.90
2023-04-11T21:49:52.261Z,99.90
2023-04-11T21:52:19.046Z,99.90
2023-04-11T21:54:46.956Z,99.90
2023-04-11T21:57:13.824Z,99.90
2023-04-11T21:59:40.756Z,99.90
2023-04-11T22:02:07.679Z,99.90
2023-04-11T22:04:41.256Z,99.90
2023-04-11T22:07:15.545Z,99.90
2023-04-11T22:09:46.723Z,99.90
2023-04-11T22:12:17.352Z,99.90
2023-04-11T22:14:44.082Z,99.90
2023-04-11T22:17:10.762Z,99.90
2023-04-11T22:19:37.477Z,99.90
2023-04-11T22:22:08.179Z,99.90
2023-04-11T22:24:35.144Z,99.90
2023-04-11T22:27:04.442Z,99.90
2023-04-11T22:29:34.280Z,99.90
2023-04-11T22:32:03.725Z,99.90
2023-04-11T22:34:30.723Z,99.90
2023-04-11T22:36:59.006Z,99.90
2023-04-11T22:39:25.828Z,99.90
2023-04-11T22:41:53.439Z,99.90
2023-04-11T22:44:20.779Z,99.90
2023-04-11T22:47:08.490Z,99.90
2023-04-11T22:49:40.548Z,99.90
2023-04-11T22:52:08.853Z,99.90
2023-04-11T22:54:38.687Z,99.90
2023-04-11T22:57:05.464Z,99.90
2023-04-11T22:59:32.564Z,99.90
2023-04-11T23:01:59.307Z,99.90
2023-04-11T23:04:26.384Z,99.90
2023-04-11T23:06:54.278Z,99.90
2023-04-11T23:09:21.770Z,99.90
2023-04-11T23:11:48.862Z,99.90
2023-04-11T23:14:18.213Z,99.90
2023-04-11T23:16:45.411Z,99.90
2023-04-11T23:19:12.680Z,99.90
2023-04-11T23:21:39.443Z,99.90
2023-04-11T23:24:07.385Z,99.90
2023-04-11T23:26:34.103Z,99.90
2023-04-11T23:29:03.548Z,99.90
2023-04-11T23:31:31.501Z,99.90
2023-04-11T23:33:58.587Z,99.90
2023-04-11T23:36:27.406Z,99.90
2023-04-11T23:38:54.218Z,99.90
2023-04-11T23:41:20.961Z,99.90
2023-04-11T23:43:47.709Z,99.90
2023-04-11T23:46:14.610Z,99.90
2023-04-11T23:48:41.462Z,99.90
2023-04-11T23:51:08.345Z,99.90
2023-04-11T23:53:35.094Z,99.90
2023-04-11T23:56:01.828Z,99.90
2023-04-11T23:58:28.529Z,99.90
